createdAt,value
2018-04-11T00:02:18.205Z,28.50
2018-04-11T00:04:45.693Z,29.13
2018-04-11T00:07:13.195Z,27.07
2018-04-11T00:09:41.088Z,27.87
2018-04-11T00:12:08.582Z,26.80
2018-04-11T00:14:36.059Z,24.57
2018-04-11T00:17:03.557Z,28.70
2018-04-11T00:19:31.054Z,27.67
2018-04-11T00:21:58.548Z,27.97
2018-04-11T00:24:26.434Z,26.60
2018-04-11T00:26:53.918Z,27.30
2018-04-11T00:29:21.418Z,27.27
2018-04-11T00:31:48.907Z,28.47
2018-04-11T00:34:16.423Z,27.60
2018-04-11T00:36:43.914Z,27.33
2018-04-11T00:39:11.438Z,29.17
2018-04-11T00:41:38.961Z,28.60
2018-04-11T00:44:06.434Z,26.93
2018-04-11T00:46:33.930Z,27.50
2018-04-11T00:49:01.818Z,28.43
2018-04-11T00:51:29.314Z,26.80
2018-04-11T00:53:56.833Z,27.97
2018-04-11T00:56:24.315Z,29.93
2018-04-11T00:58:51.811Z,26.77
2018-04-11T01:01:19.314Z,26.63
2018-04-11T01:03:46.791Z,27.97
2018-04-11T01:06:14.302Z,28.60
2018-04-11T01:08:42.231Z,28.40
2018-04-11T01:11:09.712Z,25.97
2018-04-11T01:13:37.219Z,28.27
2018-04-11T01:16:04.709Z,28.67
2018-04-11T01:18:32.201Z,27.23
2018-04-11T01:20:59.697Z,28.03
2018-04-11T01:23:27.203Z,28.50
2018-04-11T01:25:55.089Z,28.03
2018-04-11T01:28:22.588Z,28.23
2018-04-11T01:30:50.063Z,26.70
2018-04-11T01:33:17.549Z,27.20
2018-04-11T01:35:45.070Z,27.50
2018-04-11T01:38:12.570Z,27.83
2018-04-11T01:40:40.468Z,28.03
2018-04-11T01:43:07.952Z,28.20
2018-04-11T01:45:35.441Z,25.23
2018-04-11T01:48:03.319Z,27.63
2018-04-11T01:50:30.811Z,28.00
2018-04-11T01:52:58.280Z,26.27
2018-04-11T01:55:25.767Z,28.43
2018-04-11T01:57:53.254Z,27.90
2018-04-11T02:00:20.753Z,27.73
2018-04-11T02:02:48.257Z,26.23
2018-04-11T02:05:16.141Z,26.23
2018-04-11T02:07:43.616Z,26.77
2018-04-11T02:10:11.126Z,25.60
2018-04-11T02:12:39.006Z,27.57
2018-04-11T02:15:06.492Z,27.30
2018-04-11T02:17:33.985Z,28.50
2018-04-11T02:20:01.477Z,26.50
2018-04-11T02:22:28.963Z,26.13
2018-04-11T02:24:56.455Z,26.87
2018-04-11T02:27:23.931Z,27.97
2018-04-11T02:29:51.796Z,25.67
2018-04-11T02:32:19.686Z,27.33
2018-04-11T02:34:47.156Z,28.57
2018-04-11T02:37:14.635Z,27.57
2018-04-11T02:39:42.111Z,26.43
2018-04-11T02:42:09.614Z,27.50
2018-04-11T02:44:37.093Z,26.97
2018-04-11T02:47:04.591Z,26.00
2018-04-11T02:49:32.086Z,27.70
2018-04-11T02:51:59.584Z,26.17
2018-04-11T02:54:27.066Z,26.23
2018-04-11T02:56:54.966Z,23.43
2018-04-11T02:59:22.451Z,26.37
2018-04-11T03:01:49.955Z,27.67
2018-04-11T03:04:17.852Z,26.43
2018-04-11T03:06:45.359Z,26.57
2018-04-11T03:09:12.849Z,28.03
2018-04-11T03:11:40.749Z,26.93
2018-04-11T03:14:08.239Z,26.80
2018-04-11T03:16:35.743Z,26.47
2018-04-11T03:19:03.229Z,25.43
2018-04-11T03:21:30.715Z,25.87
2018-04-11T03:23:58.203Z,25.30
2018-04-11T03:26:26.107Z,25.13
2018-04-11T03:28:53.587Z,27.00
2018-04-11T03:31:21.086Z,26.87
2018-04-11T03:33:48.584Z,27.30
2018-04-11T03:36:16.056Z,26.27
2018-04-11T03:38:43.542Z,26.03
2018-04-11T03:41:11.411Z,26.60
2018-04-11T03:43:39.319Z,27.03
2018-04-11T03:46:06.806Z,26.53
2018-04-11T03:48:34.300Z,26.77
2018-04-11T03:51:02.202Z,27.57
2018-04-11T03:53:29.680Z,26.30
2018-04-11T03:55:57.188Z,25.90
2018-04-11T03:58:24.667Z,27.17
2018-04-11T04:00:52.207Z,27.63
2018-04-11T04:03:19.698Z,27.53
2018-04-11T04:05:47.168Z,27.40
2018-04-11T04:08:14.647Z,27.50
2018-04-11T04:10:42.538Z,26.23
2018-04-11T04:13:10.039Z,26.43
2018-04-11T04:15:49.470Z,26.50
2018-04-11T04:18:28.991Z,26.43
2018-04-11T04:20:57.329Z,27.07
2018-04-11T04:23:25.227Z,26.70
2018-04-11T04:25:52.718Z,26.77
2018-04-11T04:28:20.190Z,27.43
2018-04-11T04:30:47.685Z,27.53
2018-04-11T04:33:15.197Z,26.30
2018-04-11T04:35:42.691Z,25.80
2018-04-11T04:38:10.581Z,27.13
2018-04-11T04:40:38.120Z,26.17
2018-04-11T04:43:05.567Z,27.20
2018-04-11T04:45:33.439Z,25.37
2018-04-11T04:48:01.334Z,26.27
2018-04-11T04:50:28.819Z,26.67
2018-04-11T04:52:56.321Z,27.67
2018-04-11T04:55:24.190Z,27.00
2018-04-11T04:57:51.686Z,28.07
2018-04-11T05:00:19.178Z,26.20
2018-04-11T05:02:47.086Z,27.93
2018-04-11T05:05:14.561Z,27.17
2018-04-11T05:07:42.080Z,28.07
2018-04-11T05:10:09.951Z,27.23
2018-04-11T05:12:37.845Z,27.40
2018-04-11T05:15:05.346Z,27.83
2018-04-11T05:17:32.839Z,26.87
2018-04-11T05:20:00.345Z,25.47
2018-04-11T05:22:27.821Z,28.27
2018-04-11T05:24:55.327Z,26.83
2018-04-11T05:27:22.822Z,27.33
2018-04-11T05:29:50.321Z,26.63
2018-04-11T05:32:18.214Z,26.70
2018-04-11T05:34:45.702Z,26.97
2018-04-11T05:37:13.317Z,27.80
2018-04-11T05:39:40.822Z,28.47
2018-04-11T05:42:08.327Z,27.80
2018-04-11T05:44:35.816Z,28.23
2018-04-11T05:47:03.315Z,27.30
2018-04-11T05:49:31.208Z,27.57
2018-04-11T05:51:58.689Z,27.63
2018-04-11T05:54:26.183Z,26.10
2018-04-11T05:56:53.675Z,27.13
2018-04-11T05:59:21.206Z,27.90
2018-04-11T06:01:48.681Z,27.13
2018-04-11T06:04:16.568Z,27.23
2018-04-11T06:06:44.070Z,25.80
2018-04-11T06:09:11.607Z,26.60
2018-04-11T06:11:39.092Z,27.17
2018-04-11T06:14:06.588Z,27.67
2018-04-11T06:16:34.102Z,27.67
2018-04-11T06:19:01.607Z,27.53
2018-04-11T06:21:29.101Z,29.83
2018-04-11T06:23:56.595Z,28.40
2018-04-11T06:26:24.482Z,26.93
2018-04-11T06:28:51.997Z,27.77
2018-04-11T06:31:19.515Z,27.73
2018-04-11T06:33:47.037Z,27.53
2018-04-11T06:36:14.514Z,26.70
2018-04-11T06:38:42.025Z,25.83
2018-04-11T06:41:09.503Z,25.30
2018-04-11T06:43:37.388Z,27.37
2018-04-11T06:46:05.286Z,28.33
2018-04-11T06:48:32.775Z,26.87
2018-04-11T06:51:00.286Z,20.47
2018-04-11T06:53:27.774Z,25.47
2018-04-11T06:55:55.255Z,15.37
2018-04-11T06:58:22.734Z,26.73
2018-04-11T07:00:50.679Z,26.17
2018-04-11T07:03:18.174Z,26.10
2018-04-11T07:05:45.659Z,26.97
2018-04-11T07:08:13.147Z,24.40
2018-04-11T07:10:40.623Z,24.87
2018-04-11T07:13:08.503Z,23.77
2018-04-11T07:15:36.427Z,23.63
2018-04-11T07:18:03.909Z,23.27
2018-04-11T07:20:31.789Z,24.23
2018-04-11T07:22:59.668Z,24.30
2018-04-11T07:25:27.140Z,24.00
2018-04-11T07:27:54.622Z,22.77
2018-04-11T07:30:22.100Z,22.87
2018-04-11T07:32:49.580Z,22.73
2018-04-11T07:35:17.457Z,21.27
2018-04-11T07:37:44.954Z,23.33
2018-04-11T07:40:12.464Z,18.30
2018-04-11T07:42:40.354Z,19.80
2018-04-11T07:45:07.870Z,20.53
2018-04-11T07:47:35.747Z,21.27
2018-04-11T07:50:03.690Z,12.40
2018-04-11T07:52:31.185Z,20.10
2018-04-11T07:54:58.654Z,20.67
2018-04-11T07:57:26.160Z,21.03
2018-04-11T07:59:53.695Z,20.50
2018-04-11T08:02:21.186Z,21.13
2018-04-11T08:04:48.677Z,21.10
2018-04-11T08:07:16.158Z,20.43
2018-04-11T08:09:43.651Z,20.73
2018-04-11T08:12:11.141Z,20.53
2018-04-11T08:14:39.879Z,21.80
2018-04-11T08:17:07.370Z,20.43
2018-04-11T08:19:35.254Z,21.67
2018-04-11T08:22:02.757Z,21.67
2018-04-11T08:24:30.250Z,16.90
2018-04-11T08:26:58.177Z,20.90
2018-04-11T08:29:26.352Z,20.30
2018-04-11T08:31:53.887Z,20.70
2018-04-11T08:34:21.405Z,20.23
2018-04-11T08:36:49.291Z,17.57
2018-04-11T08:39:17.205Z,19.90
2018-04-11T08:41:44.700Z,18.30
2018-04-11T08:44:12.600Z,18.60
2018-04-11T08:46:40.075Z,11.43
2018-04-11T08:49:07.586Z,14.90
2018-04-11T08:51:35.463Z,11.40
2018-04-11T08:54:02.973Z,13.90
2018-04-11T08:56:30.478Z,18.37
2018-04-11T08:58:57.970Z,15.27
2018-04-11T09:01:25.515Z,17.60
2018-04-11T09:03:53.012Z,14.33
2018-04-11T09:06:20.487Z,17.77
2018-04-11T09:08:48.378Z,15.67
2018-04-11T09:11:15.954Z,17.70
2018-04-11T09:13:44.349Z,18.33
2018-04-11T09:16:11.833Z,18.97
2018-04-11T09:18:39.397Z,17.90
2018-04-11T09:21:06.872Z,14.43
2018-04-11T09:23:34.748Z,16.90
2018-04-11T09:26:02.656Z,17.10
2018-04-11T09:28:32.072Z,16.63
2018-04-11T09:31:00.154Z,16.43
2018-04-11T09:33:27.670Z,16.50
2018-04-11T09:35:55.159Z,15.90
2018-04-11T09:38:23.485Z,15.30
2018-04-11T09:40:51.005Z,17.53
2018-04-11T09:43:18.477Z,17.27
2018-04-11T09:45:45.958Z,19.03
2018-04-11T09:48:13.465Z,19.37
2018-04-11T09:50:40.953Z,20.23
2018-04-11T09:53:08.825Z,19.53
2018-04-11T09:55:37.609Z,19.73
2018-04-11T09:58:05.488Z,20.43
2018-04-11T10:00:32.967Z,21.17
2018-04-11T10:03:06.087Z,20.70
2018-04-11T10:05:33.609Z,21.57
2018-04-11T10:08:01.084Z,22.47
2018-04-11T10:10:28.580Z,22.13
2018-04-11T10:12:56.094Z,22.23
2018-04-11T10:15:24.413Z,24.63
2018-04-11T10:17:53.288Z,22.57
2018-04-11T10:20:20.793Z,19.67
2018-04-11T10:22:48.276Z,23.03
2018-04-11T10:25:15.794Z,23.80
2018-04-11T10:27:43.663Z,24.20
2018-04-11T10:30:11.164Z,24.33
2018-04-11T10:32:38.697Z,24.37
2018-04-11T10:35:06.189Z,22.97
2018-04-11T10:37:33.675Z,23.47
2018-04-11T10:40:01.578Z,25.23
2018-04-11T10:42:29.061Z,25.20
2018-04-11T10:44:56.561Z,24.83
2018-04-11T10:47:24.501Z,25.83
2018-04-11T10:49:51.971Z,25.37
2018-04-11T10:52:19.510Z,24.03
2018-04-11T10:54:46.995Z,19.70
2018-04-11T10:57:14.500Z,26.33
2018-04-11T10:59:42.022Z,22.90
2018-04-11T11:02:09.898Z,24.83
2018-04-11T11:04:37.387Z,23.80
2018-04-11T11:07:04.910Z,20.87
2018-04-11T11:09:32.398Z,21.17
2018-04-11T11:11:59.893Z,22.73
2018-04-11T11:14:27.412Z,19.03
2018-04-11T11:16:58.753Z,19.80
2018-04-11T11:19:26.295Z,16.80
2018-04-11T11:21:53.823Z,19.90
2018-04-11T11:24:21.313Z,20.87
2018-04-11T11:26:48.795Z,17.67
2018-04-11T11:29:16.303Z,21.10
2018-04-11T11:31:44.218Z,21.07
2018-04-11T11:34:11.709Z,20.50
2018-04-11T11:36:39.202Z,20.47
2018-04-11T11:39:06.712Z,20.63
2018-04-11T11:41:34.214Z,13.30
2018-04-11T11:44:01.713Z,20.63
2018-04-11T11:46:29.225Z,15.13
2018-04-11T11:48:57.094Z,16.87
2018-04-11T11:51:24.579Z,15.77
2018-04-11T11:53:52.114Z,16.27
2018-04-11T11:56:19.622Z,16.60
2018-04-11T11:58:50.577Z,19.93
2018-04-11T12:01:18.096Z,20.43
2018-04-11T12:03:45.602Z,19.10
2018-04-11T12:06:13.479Z,21.80
2018-04-11T12:08:41.383Z,19.57
2018-04-11T12:11:08.897Z,21.80
2018-04-11T12:13:36.799Z,23.07
2018-04-11T12:16:04.335Z,21.13
2018-04-11T12:18:31.847Z,22.63
2018-04-11T12:20:59.337Z,16.07
2018-04-11T12:23:27.253Z,18.97
2018-04-11T12:25:55.004Z,19.80
2018-04-11T12:28:22.524Z,21.00
2018-04-11T12:30:50.078Z,23.10
2018-04-11T12:33:17.595Z,24.13
2018-04-11T12:35:45.216Z,24.50
2018-04-11T12:38:12.695Z,21.37
2018-04-11T12:40:41.738Z,23.67
2018-04-11T12:43:09.251Z,22.03
2018-04-11T12:45:36.747Z,24.60
2018-04-11T12:48:04.272Z,23.20
2018-04-11T12:50:31.779Z,20.83
2018-04-11T12:52:59.311Z,20.93
2018-04-11T12:55:26.822Z,22.60
2018-04-11T12:57:54.323Z,18.23
2018-04-11T13:00:21.813Z,27.33
2018-04-11T13:02:51.798Z,26.03
2018-04-11T13:05:19.294Z,28.03
2018-04-11T13:07:46.798Z,27.57
2018-04-11T13:10:14.304Z,28.37
2018-04-11T13:12:42.175Z,21.43
2018-04-11T13:15:10.048Z,25.53
2018-04-11T13:17:37.624Z,29.20
2018-04-11T13:20:05.130Z,26.37
2018-04-11T13:22:32.619Z,28.07
2018-04-11T13:25:00.208Z,31.87
2018-04-11T13:27:27.711Z,31.53
2018-04-11T13:30:06.624Z,30.93
2018-04-11T13:32:34.117Z,30.40
2018-04-11T13:35:01.597Z,32.70
2018-04-11T13:37:29.127Z,29.60
2018-04-11T13:39:57.019Z,30.37
2018-04-11T13:42:24.517Z,33.13
2018-04-11T13:44:52.024Z,34.43
2018-04-11T13:47:20.607Z,30.80
2018-04-11T13:49:48.192Z,33.47
2018-04-11T13:52:15.751Z,33.80
2018-04-11T13:54:43.283Z,35.47
2018-04-11T13:57:10.877Z,33.60
2018-04-11T13:59:38.434Z,33.77
2018-04-11T14:02:06.006Z,35.57
2018-04-11T14:04:33.598Z,34.27
2018-04-11T14:07:01.198Z,31.80
2018-04-11T14:09:28.792Z,33.00
2018-04-11T14:12:11.176Z,36.57
2018-04-11T14:14:38.734Z,33.43
2018-04-11T14:17:06.355Z,34.37
2018-04-11T14:19:34.023Z,31.37
2018-04-11T14:22:01.602Z,35.60
2018-04-11T14:24:29.113Z,20.57
2018-04-11T14:26:57.013Z,29.60
2018-04-11T14:29:24.526Z,29.60
2018-04-11T14:31:52.435Z,33.60
2018-04-11T14:34:19.963Z,24.03
2018-04-11T14:36:47.880Z,38.23
2018-04-11T14:39:15.436Z,37.23
2018-04-11T14:41:43.056Z,33.67
2018-04-11T14:44:10.599Z,25.20
2018-04-11T14:46:38.156Z,37.23
2018-04-11T14:49:05.684Z,35.30
2018-04-11T14:51:33.164Z,29.80
2018-04-11T14:54:00.653Z,26.83
2018-04-11T14:56:28.578Z,32.40
2018-04-11T14:58:56.076Z,39.47
2018-04-11T15:01:23.969Z,39.50
2018-04-11T15:03:51.453Z,39.03
2018-04-11T15:06:18.977Z,25.93
2018-04-11T15:08:46.446Z,35.27
2018-04-11T15:11:13.924Z,40.73
2018-04-11T15:13:41.420Z,39.50
2018-04-11T15:16:09.301Z,41.13
2018-04-11T15:18:37.218Z,40.63
2018-04-11T15:21:04.732Z,40.07
2018-04-11T15:23:32.233Z,39.13
2018-04-11T15:26:00.151Z,37.30
2018-04-11T15:28:27.648Z,37.23
2018-04-11T15:30:55.298Z,31.17
2018-04-11T15:33:22.780Z,35.40
2018-04-11T15:35:50.279Z,30.37
2018-04-11T15:38:18.201Z,39.23
2018-04-11T15:40:45.675Z,34.10
2018-04-11T15:43:13.176Z,37.97
2018-04-11T15:45:40.693Z,40.70
2018-04-11T15:48:08.183Z,39.90
2018-04-11T15:50:35.670Z,30.13
2018-04-11T15:53:03.183Z,24.97
2018-04-11T15:55:31.091Z,30.60
2018-04-11T15:57:58.639Z,32.87
2018-04-11T16:00:26.167Z,37.87
2018-04-11T16:02:54.061Z,34.27
2018-04-11T16:05:21.600Z,33.67
2018-04-11T16:07:49.091Z,35.10
2018-04-11T16:10:16.623Z,27.53
2018-04-11T16:12:44.107Z,34.67
2018-04-11T16:15:11.584Z,27.37
2018-04-11T16:17:39.100Z,37.17
2018-04-11T16:20:06.602Z,28.97
2018-04-11T16:22:34.107Z,37.97
2018-04-11T16:25:01.583Z,36.47
2018-04-11T16:27:29.088Z,40.00
2018-04-11T16:29:56.621Z,35.30
2018-04-11T16:32:24.117Z,38.73
2018-04-11T16:34:52.014Z,38.43
2018-04-11T16:37:19.544Z,39.07
2018-04-11T16:39:47.039Z,39.00
2018-04-11T16:42:15.336Z,32.33
2018-04-11T16:44:42.866Z,34.23
2018-04-11T16:47:10.373Z,37.90
2018-04-11T16:49:37.882Z,33.87
2018-04-11T16:52:05.389Z,34.67
2018-04-11T16:54:32.872Z,37.30
2018-04-11T16:57:00.797Z,36.60
2018-04-11T16:59:28.310Z,36.03
2018-04-11T17:01:55.808Z,36.90
2018-04-11T17:04:23.447Z,36.93
2018-04-11T17:06:50.929Z,36.70
2018-04-11T17:09:18.476Z,34.67
2018-04-11T17:11:46.197Z,29.23
2018-04-11T17:14:13.697Z,36.97
2018-04-11T17:16:41.196Z,32.97
2018-04-11T17:19:09.139Z,32.50
2018-04-11T17:21:48.502Z,33.30
2018-04-11T17:24:28.263Z,34.23
2018-04-11T17:27:07.512Z,31.67
2018-04-11T17:29:47.744Z,27.77
2018-04-11T17:32:15.269Z,19.10
2018-04-11T17:34:42.767Z,24.97
2018-04-11T17:37:10.294Z,31.87
2018-04-11T17:39:37.810Z,35.47
2018-04-11T17:42:05.306Z,35.57
2018-04-11T17:44:33.209Z,34.60
2018-04-11T17:47:00.784Z,37.80
2018-04-11T17:49:28.302Z,25.27
2018-04-11T17:51:56.223Z,33.63
2018-04-11T17:54:25.628Z,37.20
2018-04-11T17:56:53.139Z,38.70
2018-04-11T17:59:21.014Z,35.23
2018-04-11T18:01:48.524Z,41.47
2018-04-11T18:04:16.028Z,38.73
2018-04-11T18:06:43.536Z,37.37
2018-04-11T18:09:11.041Z,39.00
2018-04-11T18:11:38.537Z,32.60
2018-04-11T18:14:06.031Z,37.43
2018-04-11T18:16:33.529Z,33.27
2018-04-11T18:19:01.018Z,36.13
2018-04-11T18:21:28.534Z,37.80
2018-04-11T18:23:56.073Z,37.27
2018-04-11T18:26:23.944Z,36.57
2018-04-11T18:28:51.476Z,39.27
2018-04-11T18:31:18.957Z,36.27
2018-04-11T18:33:46.858Z,37.03
2018-04-11T18:36:14.364Z,37.07
2018-04-11T18:38:41.851Z,37.07
2018-04-11T18:41:09.350Z,36.77
2018-04-11T18:43:36.848Z,37.40
2018-04-11T18:46:04.363Z,37.60
2018-04-11T18:48:31.874Z,35.80
2018-04-11T18:51:00.073Z,37.93
2018-04-11T18:53:27.657Z,38.57
2018-04-11T18:55:55.160Z,37.40
2018-04-11T18:58:23.084Z,37.40
2018-04-11T19:00:50.585Z,36.27
2018-04-11T19:03:18.496Z,35.00
2018-04-11T19:05:46.014Z,34.80
2018-04-11T19:08:13.529Z,29.70
2018-04-11T19:10:41.082Z,22.83
2018-04-11T19:13:08.630Z,32.77
2018-04-11T19:15:36.122Z,28.27
2018-04-11T19:18:03.622Z,28.50
2018-04-11T19:20:31.106Z,21.03
2018-04-11T19:22:58.634Z,24.63
2018-04-11T19:25:26.127Z,25.00
2018-04-11T19:27:53.638Z,26.87
2018-04-11T19:30:21.147Z,21.47
2018-04-11T19:32:48.627Z,17.17
2018-04-11T19:35:16.139Z,16.07
2018-04-11T19:37:43.672Z,20.70
2018-04-11T19:40:11.166Z,24.37
2018-04-11T19:42:38.660Z,20.67
2018-04-11T19:45:06.599Z,27.77
2018-04-11T19:47:34.083Z,17.53
2018-04-11T19:50:01.627Z,21.73
2018-04-11T19:52:29.109Z,18.80
2018-04-11T19:54:57.009Z,28.47
2018-04-11T19:57:24.479Z,28.33
2018-04-11T19:59:51.968Z,23.80
2018-04-11T20:02:19.452Z,26.73
2018-04-11T20:04:47.025Z,33.30
2018-04-11T20:07:14.528Z,35.77
2018-04-11T20:09:42.039Z,36.30
2018-04-11T20:12:09.543Z,23.53
2018-04-11T20:14:37.027Z,36.93
2018-04-11T20:17:05.900Z,39.50
2018-04-11T20:19:33.376Z,36.53
2018-04-11T20:22:01.256Z,33.33
2018-04-11T20:24:28.778Z,32.87
2018-04-11T20:26:56.251Z,39.87
2018-04-11T20:29:23.739Z,36.83
2018-04-11T20:31:51.234Z,30.90
2018-04-11T20:34:18.737Z,36.57
2018-04-11T20:36:46.711Z,38.30
2018-04-11T20:39:14.210Z,33.10
2018-04-11T20:41:41.710Z,38.93
2018-04-11T20:44:09.587Z,37.63
2018-04-11T20:46:37.516Z,38.83
2018-04-11T20:49:05.010Z,38.17
2018-04-11T20:51:34.043Z,38.57
2018-04-11T20:54:01.567Z,29.27
2018-04-11T20:56:29.473Z,39.97
2018-04-11T20:58:56.988Z,39.00
2018-04-11T21:01:24.890Z,39.13
2018-04-11T21:03:52.362Z,39.70
2018-04-11T21:06:19.858Z,38.30
2018-04-11T21:08:47.754Z,38.03
2018-04-11T21:11:15.231Z,38.97
2018-04-11T21:13:42.730Z,41.10
2018-04-11T21:16:11.502Z,40.30
2018-04-11T21:18:39.036Z,41.53
2018-04-11T21:21:06.522Z,41.63
2018-04-11T21:23:34.007Z,41.43
2018-04-11T21:26:01.513Z,40.63
2018-04-11T21:28:28.993Z,41.20
2018-04-11T21:30:56.467Z,41.47
2018-04-11T21:33:24.363Z,43.00
2018-04-11T21:35:51.895Z,40.93
2018-04-11T21:38:19.786Z,41.20
2018-04-11T21:40:47.283Z,41.50
2018-04-11T21:43:14.779Z,41.70
2018-04-11T21:45:42.651Z,38.80
2018-04-11T21:48:10.549Z,40.30
2018-04-11T21:50:38.097Z,40.07
2018-04-11T21:53:05.731Z,30.00
2018-04-11T21:55:33.239Z,38.47
2018-04-11T21:58:00.715Z,36.70
2018-04-11T22:00:28.209Z,38.30
2018-04-11T22:02:56.090Z,37.30
2018-04-11T22:05:23.575Z,38.17
2018-04-11T22:07:51.082Z,38.23
2018-04-11T22:10:18.972Z,38.53
2018-04-11T22:12:46.490Z,35.63
2018-04-11T22:15:13.997Z,39.07
2018-04-11T22:17:42.399Z,37.10
2018-04-11T22:20:10.516Z,36.23
2018-04-11T22:22:38.409Z,35.83
2018-04-11T22:25:05.909Z,36.90
2018-04-11T22:27:33.389Z,37.07
2018-04-11T22:30:00.919Z,35.33
2018-04-11T22:32:28.413Z,34.67
2018-04-11T22:34:56.305Z,30.63
2018-04-11T22:37:23.809Z,35.80
2018-04-11T22:39:51.325Z,34.53
2018-04-11T22:42:18.883Z,35.67
2018-04-11T22:44:46.381Z,34.93
2018-04-11T22:47:13.884Z,34.67
2018-04-11T22:49:41.444Z,36.70
2018-04-11T22:52:08.915Z,36.47
2018-04-11T22:54:36.415Z,35.63
2018-04-11T22:57:03.905Z,34.77
2018-04-11T22:59:31.418Z,36.30
2018-04-11T23:01:58.923Z,36.53
2018-04-11T23:04:26.800Z,36.90
2018-04-11T23:06:54.407Z,36.33
2018-04-11T23:09:22.391Z,36.80
2018-04-11T23:12:05.496Z,34.73
2018-04-11T23:14:33.088Z,35.97
2018-04-11T23:17:01.034Z,37.77
2018-04-11T23:19:28.973Z,34.60
2018-04-11T23:21:56.521Z,36.47
2018-04-11T23:24:24.017Z,35.67
2018-04-11T23:26:51.534Z,34.83
2018-04-11T23:29:19.050Z,34.03
2018-04-11T23:31:46.944Z,34.43
2018-04-11T23:34:14.439Z,36.00
2018-04-11T23:36:44.021Z,37.40
2018-04-11T23:39:13.426Z,36.70
2018-04-11T23:41:40.970Z,36.23
2018-04-11T23:44:08.477Z,35.43
2018-04-11T23:46:35.966Z,35.43
2018-04-11T23:49:03.833Z,37.27
2018-04-11T23:51:31.729Z,35.53
2018-04-11T23:53:59.207Z,35.47
2018-04-11T23:56:26.714Z,35.07
2018-04-11T23:58:54.225Z,36.37
